Terminal Aerodrome Forecast
Issued by NWS

Home | Current Version | Previous Version | Text Only | Print | Product List | Glossary On
Versions: 1 2 3 4 5 6 7 8 9 10 11 12 13 14 15
000
FTUS45 KABQ 160500
TAFSAF
TAF
KSAF 160524Z 1606/1706 25007KT P6SM BKN250
      TEMPO 1610/1614 35007KT
     FM161600 28007KT P6SM SCT150 BKN250
     FM162000 28015G22KT P6SM BKN150 BKN250
     FM162300 31018G28KT P6SM BKN120=

USA.gov is the U.S. government's official web portal to all federal, state and local government web resources and services.